Bluffton, MN

8:03 AM CDT on August 25, 2016 (GMT -0500)
Wadena Municipal

Weather History for KADC - September, 2013

Change the Weather History Date:

Tuesday, September 24, 2013

  Actual Average Record
Temperature  
Mean Temperature 61 °F -  
Max Temperature 71 °F 60 °F 91 °F (1935)
Min Temperature 51 °F 38 °F 24 °F (1942)
Degree Days  
Heating Degree Days 4    
Growing Degree Days 11 (Base 50)    
Moisture  
Dew Point 51 °F    
Average Humidity 76    
Maximum Humidity 94    
Minimum Humidity 50    
Precipitation  
Precipitation 0.00 in - - ()
Sea Level Pressure  
Sea Level Pressure 29.92 in    
Wind  
Wind Speed 5 mph (SSE)    
Max Wind Speed 10 mph    
Max Gust Speed -    
Visibility 10 miles    
Events      
Averages and records for this station are not official NWS values.
T = Trace of Precipitation, MM = Missing Value Source: NWS Daily Summary

Daily Weather History Graph

Daily Weather History Graph

Search for Another Location

Airport or City:

Trip Planner

Search our weather history database for the weather conditions in past years. The results will help you decide how hot, cold, wet, or windy it might be!

Date:

Astronomy

Sep. 24, 2013 Rise Set
Actual Time 7:10 AM CDT 7:13 PM CDT
Civil Twilight 6:40 AM CDT 7:43 PM CDT
Nautical Twilight 6:05 AM CDT 8:19 PM CDT
Astronomical Twilight 5:29 AM CDT 8:55 PM CDT
Moon 10:14 PM CDT (9/24) 12:44 PM CDT (9/24)
Length of Visible Light 13h 03m
Length of Day
12h 03m
Waning Gibbous, 73% of the Moon is Illuminated
Sep 24
Waning Gibbous
Sep 26
Last Quarter
Oct 4
New
Oct 11
First Quarter
Oct 18
Full

Hourly Weather History & Observations

Time (CDT) Temp. Dew Point Humidity Pressure Visibility Wind Dir Wind Speed Gust Speed Precip Events Conditions
12:14 AM 57.2 °F 50.0 °F 77% 29.87 in 10.0 mi SSE 9.2 mph - N/A   Clear
12:35 AM 57.2 °F 50.0 °F 77% 29.87 in 10.0 mi SSE 10.4 mph - N/A   Clear
12:53 AM 57.2 °F 50.0 °F 77% 29.88 in 10.0 mi SSE 6.9 mph - N/A   Clear
1:15 AM 55.4 °F 48.2 °F 77% 29.88 in 10.0 mi SE 4.6 mph - N/A   Clear
1:35 AM 55.4 °F 48.2 °F 77% 29.88 in 10.0 mi SE 5.8 mph - N/A   Clear
1:53 AM 55.4 °F 48.2 °F 77% 29.89 in 10.0 mi SE 4.6 mph - N/A   Clear
2:15 AM 53.6 °F 48.2 °F 82% 29.89 in 10.0 mi SSE 5.8 mph - N/A   Clear
2:34 AM 53.6 °F 48.2 °F 82% 29.89 in 10.0 mi SSE 3.5 mph - N/A   Clear
2:52 AM 53.6 °F 48.2 °F 82% 29.89 in 10.0 mi SE 4.6 mph - N/A   Clear
3:14 AM 53.6 °F 48.2 °F 82% 29.89 in 10.0 mi SE 4.6 mph - N/A   Clear
3:34 AM 53.6 °F 48.2 °F 82% 29.89 in 10.0 mi SSE 5.8 mph - N/A   Clear
3:53 AM 53.6 °F 48.2 °F 82% 29.89 in 10.0 mi SSE 4.6 mph - N/A   Clear
4:15 AM 53.6 °F 48.2 °F 82% 29.89 in 10.0 mi SSE 5.8 mph - N/A   Clear
4:35 AM 53.6 °F 48.2 °F 82% 29.89 in 10.0 mi SE 3.5 mph - N/A   Clear
4:52 AM 51.8 °F 48.2 °F 88% 29.89 in 10.0 mi SE 3.5 mph - N/A   Clear
5:14 AM 51.8 °F 48.2 °F 88% 29.89 in 10.0 mi SE 3.5 mph - N/A   Clear
5:35 AM 51.8 °F 48.2 °F 88% 29.89 in 10.0 mi SE 3.5 mph - N/A   Clear
5:53 AM 51.8 °F 48.2 °F 88% 29.89 in 10.0 mi Calm Calm - N/A   Clear
6:15 AM 51.8 °F 48.2 °F 88% 29.89 in 10.0 mi SE 3.5 mph - N/A   Clear
6:35 AM 51.8 °F 48.2 °F 88% 29.89 in 10.0 mi SE 3.5 mph - N/A   Clear
6:53 AM 51.8 °F 48.2 °F 88% 29.90 in 10.0 mi SSE 3.5 mph - N/A   Clear
7:15 AM 51.8 °F 48.2 °F 88% 29.90 in 10.0 mi SSE 3.5 mph - N/A   Clear
7:34 AM 51.8 °F 50.0 °F 94% 29.91 in 10.0 mi Calm Calm - N/A   Clear
7:52 AM 53.6 °F 50.0 °F 88% 29.91 in 10.0 mi SSE 3.5 mph - N/A   Clear
8:14 AM 53.6 °F 50.0 °F 88% 29.92 in 10.0 mi SSE 3.5 mph - N/A   Clear
8:34 AM 55.4 °F 50.0 °F 82% 29.92 in 10.0 mi Calm Calm - N/A   Clear
8:53 AM 55.4 °F 50.0 °F 82% 29.92 in 10.0 mi SE 3.5 mph - N/A   Clear
9:15 AM 55.4 °F 50.0 °F 82% 29.93 in 10.0 mi Calm Calm - N/A   Clear
9:35 AM 55.4 °F 51.8 °F 88% 29.93 in 10.0 mi Calm Calm - N/A   Clear
9:53 AM 55.4 °F 51.8 °F 88% 29.93 in 10.0 mi Calm Calm - N/A   Scattered Clouds
10:15 AM 57.2 °F 51.8 °F 82% 29.94 in 10.0 mi South 3.5 mph - N/A   Scattered Clouds
10:35 AM 57.2 °F 51.8 °F 82% 29.95 in 10.0 mi SSE 5.8 mph - N/A   Clear
10:53 AM 57.2 °F 51.8 °F 82% 29.95 in 10.0 mi South 4.6 mph - N/A   Clear
11:15 AM 57.2 °F 51.8 °F 82% 29.96 in 10.0 mi South 5.8 mph - N/A   Clear
11:35 AM 59.0 °F 51.8 °F 77% 29.95 in 10.0 mi SE 5.8 mph - N/A   Clear
11:52 AM 60.8 °F 51.8 °F 72% 29.96 in 10.0 mi SSE 5.8 mph - N/A   Clear
12:14 PM 60.8 °F 53.6 °F 77% 29.95 in 10.0 mi SE 4.6 mph - N/A   Clear
12:34 PM 62.6 °F 53.6 °F 72% 29.95 in 10.0 mi Calm Calm - N/A   Clear
12:53 PM 62.6 °F 53.6 °F 72% 29.95 in 10.0 mi Calm Calm - N/A   Clear
1:15 PM 64.4 °F 53.6 °F 68% 29.95 in 10.0 mi Calm Calm - N/A   Clear
1:35 PM 66.2 °F 53.6 °F 64% 29.94 in 10.0 mi South 3.5 mph - N/A   Clear
1:53 PM 66.2 °F 53.6 °F 64% 29.94 in 10.0 mi Calm Calm - N/A   Clear
2:15 PM 66.2 °F 53.6 °F 64% 29.93 in 10.0 mi South 4.6 mph - N/A   Clear
2:35 PM 69.8 °F 55.4 °F 60% 29.93 in 10.0 mi SE 4.6 mph - N/A   Clear
2:53 PM 69.8 °F 55.4 °F 60% 29.93 in 10.0 mi SSE 3.5 mph - N/A   Clear
3:15 PM 69.8 °F 53.6 °F 56% 29.93 in 10.0 mi SE 5.8 mph - N/A   Clear
3:34 PM 71.6 °F 53.6 °F 53% 29.92 in 10.0 mi SE 4.6 mph - N/A   Clear
3:53 PM 71.6 °F 53.6 °F 53% 29.92 in 10.0 mi SSW 5.8 mph - N/A   Clear
4:15 PM 71.6 °F 51.8 °F 50% 29.92 in 10.0 mi South 8.1 mph - N/A   Scattered Clouds
4:35 PM 71.6 °F 51.8 °F 50% 29.92 in 10.0 mi South 6.9 mph - N/A   Clear
4:52 PM 71.6 °F 51.8 °F 50% 29.92 in 10.0 mi SSW 5.8 mph - N/A   Clear
5:15 PM 71.6 °F 51.8 °F 50% 29.92 in 10.0 mi SSE 8.1 mph - N/A   Clear
5:35 PM 69.8 °F 51.8 °F 53% 29.92 in 10.0 mi SSE 8.1 mph - N/A   Clear
5:53 PM 69.8 °F 51.8 °F 53% 29.92 in 10.0 mi South 9.2 mph - N/A   Clear
6:15 PM 68.0 °F 51.8 °F 56% 29.92 in 10.0 mi South 6.9 mph - N/A   Clear
6:35 PM 66.2 °F 51.8 °F 60% 29.92 in 10.0 mi SSE 4.6 mph - N/A   Clear
6:52 PM 64.4 °F 51.8 °F 64% 29.92 in 10.0 mi SSE 4.6 mph - N/A   Clear
7:14 PM 64.4 °F 51.8 °F 64% 29.92 in 10.0 mi SE 4.6 mph - N/A   Clear
7:35 PM 60.8 °F 51.8 °F 72% 29.92 in 10.0 mi Calm Calm - N/A   Clear
7:53 PM 59.0 °F 51.8 °F 77% 29.92 in 10.0 mi Calm Calm - N/A   Clear
8:15 PM 60.8 °F 51.8 °F 72% 29.93 in 10.0 mi Calm Calm - N/A   Clear
8:34 PM 57.2 °F 51.8 °F 82% 29.93 in 10.0 mi Calm Calm - N/A   Clear
8:53 PM 57.2 °F 51.8 °F 82% 29.93 in 10.0 mi Calm Calm - N/A   Clear
9:15 PM 57.2 °F 51.8 °F 82% 29.93 in 10.0 mi ESE 3.5 mph - N/A   Clear
9:35 PM 55.4 °F 51.8 °F 88% 29.93 in 10.0 mi Calm Calm - N/A   Clear
9:52 PM 55.4 °F 51.8 °F 88% 29.93 in 10.0 mi Calm Calm - N/A   Clear
10:15 PM 53.6 °F 50.0 °F 88% 29.93 in 10.0 mi Calm Calm - N/A   Clear
10:35 PM 53.6 °F 50.0 °F 88% 29.93 in 10.0 mi Calm Calm - N/A   Clear
10:52 PM 51.8 °F 50.0 °F 94% 29.93 in 5.0 mi Calm Calm - N/A   Clear
11:15 PM 51.8 °F 50.0 °F 94% 29.93 in 10.0 mi Calm Calm - N/A   Clear
11:35 PM 51.8 °F 50.0 °F 94% 29.94 in 10.0 mi Calm Calm - N/A   Clear
11:52 PM 51.8 °F 48.2 °F 88% 29.94 in 10.0 mi Calm Calm - N/A   Clear